Portada
METAR-TAF:

METAR-TAF

Aeroports :

Santa Clara, Cuba

latitud: 22-29-32N, longitud: 079-56-37W, altitud: 103 m

Observació

L'informe es va fer fa 1 hora i 10 minuts, a les 01:50 UTC
Vent 9 kt del Nord-Est
Temperatura 21°C
Humitat 73%
Pressió 1019 hPa
Visibilitat: 8000 m
Núvols disperses a una alçada de 2000 ft

METAR: MUSC 020150Z 05009KT 8000 SCT020 21/16 Q1019

Hora: 22:00 (03:00 UTC)

Pronòstic

L'informe es va fer fa 4 hores i 0 minuts, a les 23:00 UTC
Pronòstic vàlid del 02 a les 00 UTC al 02 a les 24 UTC
Vent 7 kt del Nord/Nord-Est
Visibilitat: 9000 m
Cel ennuvolat a una alçada de 2000 ft
Evolucionant progressivament
l' 02 a les 01 UTC al 02 a les 04 UTC
Vent 3 kt amb direcció variable
Núvols disperses a una alçada de 2000 ft

TAF: MUSC 012300Z 0200/0224 03007KT 9000 BKN020 BECMG 0201/0204 VRB03KT SCT020

Observacions i pronòstics meteorològics de més de 4000 aeroports (METAR i TAF).

Les estacions disponibles són els punts grocs i vermells al mapa.

Posi el ratolí al punt desitjat per veure el nom de l'estació.

Feu clic per veure les observacions i els pronòstics meteorològics.

Per canviar el mapa: feu clic els botons verds amb una creu de color negre per apropar; al botó verd amb un guió per allunyar la imatge; o en les fletxes verdes per a mapes adjacents.


METAR-TAF: